Time;durP1;ratioP1;P1;durP2;ratioP2;P2;SDS_P1;SDS_P2;PMS_P1;PMS_P2;Temp;Humidity;BMP_temperature;BMP_pressure;BME280_temperature;BME280_humidity;BME280_pressure;Samples;Min_cycle;Max_cycle;Signal;HPM_P1;HPM_P2
2023/03/31 00:00:27;;;;;;;0.57;0.40;;;;;;;21.54;37.15;99481.97;4544227;28;20373;-56
2023/03/31 00:02:40;;;;;;;0.63;0.50;;;;;;;21.51;37.10;99485.63;4545521;28;20029;-56
2023/03/31 00:04:53;;;;;;;0.52;0.40;;;;;;;21.48;37.02;99474.13;4543374;28;20524;-56
2023/03/31 00:07:04;;;;;;;1.48;0.50;;;;;;;21.53;37.35;99488.91;4546109;28;20091;-57
2023/03/31 00:09:20;;;;;;;0.40;0.32;;;;;;;21.51;36.97;99479.91;4544100;28;20039;-56
2023/03/31 00:11:31;;;;;;;0.88;0.40;;;;;;;21.53;37.16;99483.16;4560389;27;21674;-56
2023/03/31 00:13:41;;;;;;;0.73;0.30;;;;;;;21.52;37.07;99475.78;4545664;28;20048;-56
2023/03/31 00:15:57;;;;;;;0.80;0.50;;;;;;;21.52;37.31;99470.03;4542766;28;20052;-56
2023/03/31 00:18:07;;;;;;;0.52;0.40;;;;;;;21.52;37.29;99470.03;4543549;28;20079;-56
2023/03/31 00:20:19;;;;;;;0.68;0.40;;;;;;;21.53;37.48;99465.13;4550053;28;20630;-55
2023/03/31 00:22:29;;;;;;;0.63;0.38;;;;;;;21.50;37.33;99458.13;4543731;28;20102;-56
2023/03/31 00:24:39;;;;;;;0.57;0.47;;;;;;;21.50;37.21;99455.25;4543410;28;20103;-56
2023/03/31 00:26:50;;;;;;;1.10;0.60;;;;;;;21.49;37.89;99442.16;4541474;28;20037;-56
2023/03/31 00:29:01;;;;;;;0.30;0.30;;;;;;;21.48;37.56;99446.25;4540122;28;20032;-56
2023/03/31 00:31:11;;;;;;;1.17;0.50;;;;;;;21.50;37.86;99443.78;4558443;28;20047;-56
2023/03/31 00:33:22;;;;;;;0.73;0.47;;;;;;;21.48;37.81;99440.50;4543704;28;20039;-55
2023/03/31 00:35:37;;;;;;;0.47;0.40;;;;;;;21.48;37.77;99440.50;4559243;28;20067;-56
2023/03/31 00:37:48;;;;;;;0.60;0.43;;;;;;;21.48;38.12;99434.75;4549175;28;20028;-56
2023/03/31 00:39:59;;;;;;;1.05;0.50;;;;;;;21.47;37.86;99433.09;4542862;28;20041;-56
2023/03/31 00:42:13;;;;;;;0.65;0.43;;;;;;;21.47;37.82;99417.94;4542517;28;20033;-56
2023/03/31 00:44:29;;;;;;;0.60;0.50;;;;;;;21.47;38.17;99420.81;4543276;28;20830;-55
2023/03/31 00:46:40;;;;;;;0.52;0.40;;;;;;;21.48;38.04;99420.41;4558005;27;20723;-56
2023/03/31 00:48:56;;;;;;;0.80;0.50;;;;;;;21.47;38.46;99412.19;4552238;28;20186;-56
2023/03/31 00:51:07;;;;;;;0.75;0.40;;;;;;;21.47;38.44;99407.25;4541935;28;20095;-56
2023/03/31 00:53:21;;;;;;;0.52;0.38;;;;;;;21.45;38.26;99415.47;4558890;27;20036;-57
2023/03/31 00:55:41;;;;;;;0.50;0.50;;;;;;;21.48;38.08;99417.53;4545282;28;20686;-56
2023/03/31 00:57:54;;;;;;;0.80;0.40;;;;;;;21.45;38.29;99409.72;4540152;28;20063;-56
2023/03/31 01:00:14;;;;;;;0.38;0.32;;;;;;;21.46;38.49;99408.50;4542014;28;21145;-56
2023/03/31 01:02:25;;;;;;;0.60;0.40;;;;;;;21.44;38.38;99405.19;4541983;28;20633;-55
2023/03/31 01:04:44;;;;;;;0.55;0.40;;;;;;;21.44;38.70;99393.72;4544031;28;20033;-57
2023/03/31 01:07:15;;;;;;;0.88;0.40;;;;;;;21.47;38.69;99389.22;4562449;27;20042;-56
2023/03/31 01:09:33;;;;;;;0.35;0.30;;;;;;;21.32;38.45;99359.63;4546894;28;20033;-57
2023/03/31 01:11:46;;;;;;;1.08;0.40;;;;;;;21.46;38.77;99374.03;4547315;28;20093;-55
2023/03/31 01:13:57;;;;;;;0.52;0.40;;;;;;;21.45;38.55;99371.59;4562685;27;20121;-56
2023/03/31 01:16:09;;;;;;;0.75;0.43;;;;;;;21.46;38.70;99364.59;4545825;28;20086;-55
2023/03/31 01:18:20;;;;;;;1.15;0.47;;;;;;;21.40;38.66;99358.44;4547164;28;20025;-56
2023/03/31 01:20:40;;;;;;;0.80;0.60;;;;;;;21.45;38.62;99363.81;4560363;27;20074;-56
2023/03/31 01:22:59;;;;;;;0.90;0.40;;;;;;;21.45;38.54;99365.84;4547017;28;21602;-56
2023/03/31 01:25:21;;;;;;;0.75;0.52;;;;;;;21.44;38.56;99365.00;4564115;27;20101;-56
2023/03/31 01:27:44;;;;;;;0.50;0.40;;;;;;;21.44;38.67;99361.31;4561214;28;21017;-57
2023/03/31 01:30:28;;;;;;;0.65;0.35;;;;;;;21.41;38.48;99351.47;4546992;28;20044;-56
2023/03/31 01:33:04;;;;;;;0.55;0.50;;;;;;;21.42;38.16;99361.72;4544659;28;20784;-56
2023/03/31 01:35:39;;;;;;;0.63;0.40;;;;;;;21.43;38.56;99354.75;4539489;28;20060;-55
2023/03/31 01:38:09;;;;;;;0.82;0.40;;;;;;;21.43;38.36;99351.91;4548159;28;20083;-56
2023/03/31 01:40:38;;;;;;;0.60;0.28;;;;;;;21.40;37.93;99346.97;4558514;28;20581;-57
2023/03/31 01:42:48;;;;;;;0.30;0.30;;;;;;;21.43;38.36;99349.03;4543203;28;20028;-56
2023/03/31 01:45:37;;;;;;;0.85;0.40;;;;;;;21.39;38.08;99339.56;4545921;28;20036;-55
2023/03/31 01:47:59;;;;;;;0.85;0.45;;;;;;;21.40;38.03;99337.50;4545722;28;20448;-56
2023/03/31 01:50:41;;;;;;;0.55;0.38;;;;;;;21.42;37.99;99340.81;4546933;28;20552;-55
2023/03/31 01:53:12;;;;;;;0.85;0.50;;;;;;;21.39;38.16;99325.19;4545135;28;20060;-56
2023/03/31 01:55:25;;;;;;;0.43;0.40;;;;;;;21.39;38.37;99322.31;4542876;28;20048;-56
2023/03/31 01:57:55;;;;;;;0.43;0.30;;;;;;;21.39;38.01;99321.53;4561416;28;20359;-56
2023/03/31 02:00:11;;;;;;;0.70;0.50;;;;;;;21.40;38.30;99318.25;4544722;28;20999;-56
2023/03/31 02:02:28;;;;;;;0.90;0.30;;;;;;;21.38;38.22;99323.56;4546626;28;20076;-56
2023/03/31 02:04:53;;;;;;;0.65;0.35;;;;;;;21.37;38.30;99313.31;4545261;28;20060;-56
2023/03/31 02:07:18;;;;;;;0.40;0.30;;;;;;;21.37;37.94;99306.75;4544986;28;20029;-56
2023/03/31 02:09:40;;;;;;;0.63;0.22;;;;;;;21.39;38.32;99310.84;4561308;28;20563;-56
2023/03/31 02:11:51;;;;;;;0.60;0.30;;;;;;;21.36;38.12;99300.19;4545525;28;20040;-56
2023/03/31 02:14:07;;;;;;;0.77;0.60;;;;;;;21.37;38.29;99301.00;4561003;28;20044;-56
2023/03/31 02:16:23;;;;;;;0.70;0.32;;;;;;;21.37;38.21;99292.41;4544781;28;20737;-58
2023/03/31 02:18:36;;;;;;;0.35;0.30;;;;;;;21.38;37.84;99292.00;4544484;28;20124;-56
2023/03/31 02:20:49;;;;;;;0.70;0.40;;;;;;;21.38;38.23;99294.03;4545166;28;20087;-56
2023/03/31 02:23:01;;;;;;;0.63;0.47;;;;;;;21.39;38.38;99295.69;4546604;28;20135;-55
2023/03/31 02:25:17;;;;;;;0.50;0.40;;;;;;;21.36;38.00;99287.91;4545218;28;20704;-56
2023/03/31 02:27:32;;;;;;;0.95;0.40;;;;;;;21.37;38.12;99287.50;4545522;28;20585;-56
2023/03/31 02:29:44;;;;;;;0.85;0.40;;;;;;;21.35;38.55;99275.59;4541753;28;20029;-56
2023/03/31 02:32:06;;;;;;;0.60;0.30;;;;;;;21.37;38.43;99278.88;4542365;28;20062;-56
2023/03/31 02:34:18;;;;;;;0.90;0.40;;;;;;;21.31;38.46;99266.13;4559886;27;20035;-56
2023/03/31 02:36:29;;;;;;;0.65;0.40;;;;;;;21.35;38.23;99269.84;4545255;28;20071;-56
2023/03/31 02:38:46;;;;;;;0.55;0.40;;;;;;;21.29;38.56;99251.38;4544673;28;20036;-56
2023/03/31 02:40:57;;;;;;;0.43;0.38;;;;;;;21.36;38.67;99265.72;4545254;28;20048;-56
2023/03/31 02:43:07;;;;;;;0.60;0.40;;;;;;;21.33;38.61;99255.06;4553071;28;20027;-56
2023/03/31 02:45:44;;;;;;;1.63;0.50;;;;;;;21.35;38.92;99252.63;4544740;28;20123;-57
2023/03/31 02:47:54;;;;;;;0.45;0.30;;;;;;;21.33;39.49;99237.00;4544769;28;20033;-57
2023/03/31 02:50:06;;;;;;;0.38;0.30;;;;;;;21.32;39.74;99233.34;4559772;28;20341;-55
2023/03/31 02:52:39;;;;;;;0.30;0.30;;;;;;;21.34;39.77;99239.50;4561113;27;20463;-57
2023/03/31 02:55:14;;;;;;;0.30;0.30;;;;;;;21.34;40.11;99235.81;4558183;28;20036;-56
2023/03/31 02:57:53;;;;;;;0.68;0.38;;;;;;;21.32;40.27;99236.22;4541755;28;20820;-56
2023/03/31 03:00:41;;;;;;;0.40;0.40;;;;;;;21.32;40.47;99219.00;4541172;28;20135;-56
2023/03/31 03:03:14;;;;;;;0.73;0.30;;;;;;;21.33;40.41;99209.16;4540794;28;20604;-56
2023/03/31 03:05:38;;;;;;;1.52;0.57;;;;;;;21.30;40.23;99209.97;4560271;28;20075;-56
2023/03/31 03:08:22;;;;;;;0.68;0.40;;;;;;;21.31;40.30;99197.25;4541919;28;20044;-57
2023/03/31 03:11:16;;;;;;;0.55;0.35;;;;;;;21.31;40.64;99200.13;4559960;28;20908;-56
2023/03/31 03:13:34;;;;;;;0.45;0.30;;;;;;;21.31;40.98;99184.97;4545641;28;20037;-56
2023/03/31 03:16:08;;;;;;;0.50;0.20;;;;;;;21.29;40.72;99178.78;4553455;28;20618;-57
2023/03/31 03:18:18;;;;;;;0.43;0.40;;;;;;;21.32;41.06;99177.97;4544654;28;20052;-56
2023/03/31 03:20:32;;;;;;;0.80;0.32;;;;;;;21.28;41.22;99160.75;4545772;28;20523;-56
2023/03/31 03:22:43;;;;;;;0.43;0.20;;;;;;;21.29;40.81;99162.41;4545372;28;20629;-56
2023/03/31 03:24:54;;;;;;;0.57;0.30;;;;;;;21.27;40.86;99153.38;4545153;28;20118;-56
2023/03/31 03:27:04;;;;;;;0.60;0.40;;;;;;;21.23;41.11;99135.31;4540960;28;20037;-56
2023/03/31 03:29:15;;;;;;;0.38;0.22;;;;;;;21.25;41.27;99141.47;4545756;28;20495;-56
2023/03/31 03:31:25;;;;;;;0.85;0.40;;;;;;;21.27;41.06;99136.16;4545257;28;20044;-56
2023/03/31 03:33:36;;;;;;;0.70;0.32;;;;;;;21.25;40.81;99127.13;4546647;28;20055;-56
2023/03/31 03:35:46;;;;;;;0.60;0.20;;;;;;;21.26;41.02;99123.06;4544193;28;20033;-56
2023/03/31 03:37:56;;;;;;;0.52;0.30;;;;;;;21.28;40.93;99105.41;4544217;28;20033;-56
2023/03/31 03:40:08;;;;;;;0.20;0.20;;;;;;;21.26;41.27;99105.84;4544838;28;20079;-55
2023/03/31 03:42:18;;;;;;;0.60;0.30;;;;;;;21.27;41.23;99095.16;4544918;28;20040;-56
2023/03/31 03:44:28;;;;;;;0.30;0.30;;;;;;;21.24;40.89;99084.50;4544119;28;20031;-56
2023/03/31 03:46:39;;;;;;;0.38;0.20;;;;;;;21.24;41.20;99073.84;4545090;28;20041;-57
2023/03/31 03:48:49;;;;;;;0.50;0.30;;;;;;;21.26;41.19;99067.69;4544728;28;20332;-56
2023/03/31 03:51:00;;;;;;;1.30;0.40;;;;;;;21.24;41.00;99056.63;4545017;28;20102;-56
2023/03/31 03:53:10;;;;;;;0.22;0.20;;;;;;;21.26;40.62;99054.19;4545648;28;20017;-56
2023/03/31 03:55:21;;;;;;;0.40;0.30;;;;;;;21.27;41.02;99050.06;4543783;28;20073;-56
2023/03/31 03:57:32;;;;;;;0.55;0.32;;;;;;;21.26;41.15;99042.69;4544639;28;20033;-56
2023/03/31 03:59:42;;;;;;;0.30;0.30;;;;;;;21.24;40.98;99045.16;4545355;28;20053;-56
2023/03/31 04:01:53;;;;;;;0.28;0.28;;;;;;;21.26;40.82;99041.88;4545800;28;20115;-57
2023/03/31 04:04:03;;;;;;;0.38;0.30;;;;;;;21.23;40.82;99046.34;4543841;28;20045;-58
2023/03/31 04:06:14;;;;;;;0.40;0.22;;;;;;;21.24;40.96;99042.28;4544656;28;20450;-56
2023/03/31 04:08:25;;;;;;;0.50;0.40;;;;;;;21.24;40.89;99045.16;4544383;28;20045;-56
2023/03/31 04:10:35;;;;;;;0.73;0.40;;;;;;;21.22;40.43;99041.03;4545508;28;20021;-57
2023/03/31 04:12:45;;;;;;;0.95;0.40;;;;;;;21.01;40.60;99004.53;4543646;28;20036;-56
2023/03/31 04:14:56;;;;;;;0.77;0.40;;;;;;;21.24;40.73;99050.88;4544458;28;20037;-56
2023/03/31 04:17:09;;;;;;;0.38;0.30;;;;;;;21.19;40.21;99033.25;4542931;28;20099;-55
2023/03/31 04:19:20;;;;;;;0.68;0.38;;;;;;;21.23;40.58;99043.50;4542594;28;20037;-56
2023/03/31 04:21:33;;;;;;;0.30;0.30;;;;;;;21.22;40.64;99033.25;4546188;28;20577;-56
2023/03/31 04:23:46;;;;;;;0.35;0.30;;;;;;;21.21;40.83;99025.06;4559878;28;20038;-56
2023/03/31 04:25:57;;;;;;;0.65;0.30;;;;;;;21.21;40.46;99019.31;4544817;28;21084;-57
2023/03/31 04:28:09;;;;;;;0.50;0.45;;;;;;;21.21;40.79;99005.81;4544867;28;20059;-56
2023/03/31 04:30:21;;;;;;;0.82;0.40;;;;;;;21.22;40.50;99010.28;4545005;28;20086;-56
2023/03/31 04:32:35;;;;;;;0.55;0.40;;;;;;;21.21;40.70;99011.53;4543017;28;20041;-56
2023/03/31 04:34:46;;;;;;;0.50;0.28;;;;;;;21.21;40.71;98996.38;4545584;28;20076;-56
2023/03/31 04:37:01;;;;;;;0.52;0.30;;;;;;;21.18;40.69;98995.16;4553027;28;20036;-56
2023/03/31 04:39:13;;;;;;;0.47;0.30;;;;;;;21.21;41.12;98979.97;4544172;27;20044;-56
2023/03/31 04:41:26;;;;;;;0.40;0.40;;;;;;;21.21;40.61;98985.72;4545988;28;20094;-55
2023/03/31 04:43:36;;;;;;;0.50;0.40;;;;;;;21.20;40.80;98986.94;4546292;28;20036;-56
2023/03/31 04:45:47;;;;;;;0.60;0.30;;;;;;;21.21;40.92;98984.88;4546573;28;20033;-56
2023/03/31 04:47:57;;;;;;;0.25;0.20;;;;;;;21.21;40.71;98987.75;4547709;28;20465;-55
2023/03/31 04:50:09;;;;;;;1.05;0.32;;;;;;;21.12;40.41;98964.41;4545973;28;20324;-56
2023/03/31 04:52:20;;;;;;;0.43;0.20;;;;;;;21.18;40.64;98966.44;4548174;28;20036;-56
2023/03/31 04:54:30;;;;;;;1.10;0.30;;;;;;;21.20;40.86;98958.22;4545660;28;20021;-56
2023/03/31 04:56:41;;;;;;;0.60;0.40;;;;;;;21.18;40.87;98954.97;4546939;28;20068;-57
2023/03/31 04:58:51;;;;;;;0.82;0.40;;;;;;;21.19;40.61;98950.88;4547533;28;20176;-55
2023/03/31 05:01:05;;;;;;;0.20;0.20;;;;;;;21.19;40.99;98945.13;4546027;28;20025;-57
2023/03/31 05:03:15;;;;;;;0.35;0.22;;;;;;;21.18;41.17;98949.25;4545900;28;20071;-57
2023/03/31 05:05:26;;;;;;;0.30;0.30;;;;;;;21.18;40.95;98954.97;4547961;28;20052;-56
2023/03/31 05:07:36;;;;;;;0.55;0.30;;;;;;;21.15;40.83;98950.06;4547931;28;20039;-56
2023/03/31 05:09:47;;;;;;;1.48;0.40;;;;;;;21.19;41.09;98947.16;4548741;28;20500;-55
2023/03/31 05:11:57;;;;;;;0.47;0.28;;;;;;;21.17;41.48;98947.56;4546789;28;20378;-57
2023/03/31 05:14:08;;;;;;;0.20;0.20;;;;;;;21.13;41.26;98941.03;4547042;28;20432;-56
2023/03/31 05:16:18;;;;;;;0.43;0.30;;;;;;;21.11;40.91;98937.75;4546039;28;20619;-56
2023/03/31 05:18:29;;;;;;;0.30;0.30;;;;;;;21.15;40.91;98941.47;4560177;27;20038;-55
2023/03/31 05:20:39;;;;;;;0.30;0.30;;;;;;;21.16;41.20;98940.22;4546116;28;20039;-56
2023/03/31 05:22:50;;;;;;;0.43;0.30;;;;;;;21.13;40.97;98941.03;4562888;28;20032;-55
2023/03/31 05:25:00;;;;;;;0.50;0.40;;;;;;;21.16;40.97;98940.22;4561197;28;20060;-55
2023/03/31 05:27:11;;;;;;;0.43;0.40;;;;;;;21.15;41.17;98926.28;4544966;28;20029;-54
2023/03/31 05:29:22;;;;;;;0.88;0.30;;;;;;;21.17;41.02;98930.38;4545795;28;21141;-55
2023/03/31 05:31:33;;;;;;;0.65;0.38;;;;;;;21.16;41.16;98934.47;4546000;28;20037;-55
2023/03/31 05:33:43;;;;;;;0.65;0.30;;;;;;;21.16;40.80;98928.75;4545812;28;20021;-55
2023/03/31 05:35:54;;;;;;;0.45;0.30;;;;;;;21.16;41.00;98927.91;4544568;28;20099;-55
2023/03/31 05:38:05;;;;;;;0.30;0.30;;;;;;;21.17;41.43;98916.03;4543701;28;21185;-57
2023/03/31 05:40:15;;;;;;;0.52;0.30;;;;;;;21.10;41.25;98913.19;4543506;28;20436;-55
2023/03/31 05:42:26;;;;;;;1.13;0.30;;;;;;;21.14;40.89;98902.50;4545177;28;20519;-59
2023/03/31 05:44:36;;;;;;;0.30;0.30;;;;;;;21.12;41.14;98889.81;4546384;28;20044;-59
2023/03/31 05:46:47;;;;;;;0.57;0.38;;;;;;;21.12;41.22;98886.94;4543598;28;20619;-58
2023/03/31 05:48:57;;;;;;;0.28;0.28;;;;;;;21.13;41.23;98883.66;4559229;27;20075;-56
2023/03/31 05:51:08;;;;;;;0.65;0.32;;;;;;;21.12;41.30;98882.00;4544096;28;20545;-57
2023/03/31 05:53:18;;;;;;;0.40;0.30;;;;;;;21.08;41.16;98875.47;4543771;28;20025;-59
2023/03/31 05:55:29;;;;;;;0.32;0.30;;;;;;;21.14;40.90;98887.31;4530725;28;20556;-57
2023/03/31 05:57:40;;;;;;;1.08;0.50;;;;;;;21.11;41.01;98874.63;4544159;28;20041;-57
2023/03/31 05:59:51;;;;;;;0.90;0.40;;;;;;;21.09;41.12;98879.97;4542398;28;20393;-56
2023/03/31 06:02:02;;;;;;;0.73;0.40;;;;;;;21.08;41.14;98868.91;4543046;28;20041;-56
2023/03/31 06:04:12;;;;;;;0.88;0.30;;;;;;;21.12;41.37;98870.53;4543301;28;20033;-56
2023/03/31 06:06:24;;;;;;;0.50;0.40;;;;;;;21.11;41.16;98871.78;4545453;28;20389;-57
2023/03/31 06:08:35;;;;;;;0.32;0.32;;;;;;;21.08;41.26;98864.00;4543505;28;20576;-56
2023/03/31 06:10:45;;;;;;;0.52;0.30;;;;;;;21.10;41.46;98858.66;4543891;28;20040;-56
2023/03/31 06:12:56;;;;;;;0.57;0.47;;;;;;;21.09;40.71;98859.88;4544267;28;20441;-56
2023/03/31 06:15:07;;;;;;;0.70;0.30;;;;;;;21.04;41.04;98834.47;4551765;28;20038;-56
2023/03/31 06:17:17;;;;;;;0.70;0.30;;;;;;;21.09;41.15;98842.66;4546372;28;20434;-57
2023/03/31 06:19:28;;;;;;;0.43;0.30;;;;;;;21.09;41.01;98834.06;4544394;28;20546;-56
2023/03/31 06:21:38;;;;;;;0.47;0.30;;;;;;;21.08;40.77;98820.13;4544800;28;20033;-56
2023/03/31 06:23:49;;;;;;;0.80;0.40;;;;;;;21.10;40.93;98832.84;4543262;28;20099;-56
2023/03/31 06:26:07;;;;;;;0.38;0.30;;;;;;;21.09;40.59;98821.78;4543988;28;20517;-56
2023/03/31 06:28:18;;;;;;;0.40;0.40;;;;;;;21.07;40.87;98812.78;4542773;28;20032;-60
2023/03/31 06:30:29;;;;;;;0.30;0.30;;;;;;;21.08;40.94;98812.34;4544551;28;20021;-56
2023/03/31 06:32:39;;;;;;;0.43;0.30;;;;;;;21.05;40.76;98810.31;4559896;28;20032;-57
2023/03/31 06:34:50;;;;;;;0.38;0.30;;;;;;;21.08;40.92;98812.34;4544447;28;20563;-57
2023/03/31 06:37:00;;;;;;;0.60;0.30;;;;;;;21.05;41.17;98804.59;4544939;28;20505;-56
2023/03/31 06:39:10;;;;;;;0.70;0.50;;;;;;;21.08;41.16;98800.88;4545105;28;20039;-55
2023/03/31 06:41:21;;;;;;;0.40;0.38;;;;;;;21.05;41.17;98790.25;4544746;28;20041;-57
2023/03/31 06:43:31;;;;;;;0.60;0.32;;;;;;;21.07;40.92;98784.91;4543336;28;20020;-58
2023/03/31 06:45:42;;;;;;;0.82;0.40;;;;;;;21.06;41.47;98785.34;4544473;28;20373;-61
2023/03/31 06:47:52;;;;;;;0.43;0.30;;;;;;;21.04;41.56;98779.19;4552340;28;20106;-59
2023/03/31 06:50:04;;;;;;;0.50;0.30;;;;;;;20.99;40.93;98774.69;4542848;28;20037;-58
2023/03/31 06:52:15;;;;;;;0.30;0.30;;;;;;;21.06;41.16;98777.53;4559234;28;20215;-57
2023/03/31 06:54:26;;;;;;;0.30;0.30;;;;;;;21.03;41.29;98768.91;4541903;28;20037;-57
2023/03/31 06:56:36;;;;;;;0.40;0.30;;;;;;;21.04;41.16;98767.69;4551604;28;20037;-58
2023/03/31 06:58:47;;;;;;;0.40;0.40;;;;;;;21.00;41.28;98761.16;4543149;28;20503;-57
2023/03/31 07:00:57;;;;;;;0.60;0.30;;;;;;;21.03;41.45;98752.53;4541710;28;20235;-57
2023/03/31 07:03:08;;;;;;;0.50;0.30;;;;;;;21.04;41.75;98744.75;4542588;28;20036;-57
2023/03/31 07:05:25;;;;;;;0.35;0.20;;;;;;;20.89;41.24;98717.31;4545579;28;20811;-58
2023/03/31 07:07:35;;;;;;;0.30;0.30;;;;;;;21.05;41.41;98737.78;4543543;28;20038;-57
2023/03/31 07:09:46;;;;;;;0.45;0.30;;;;;;;21.05;41.40;98744.34;4544073;28;20028;-58
2023/03/31 07:11:56;;;;;;;0.70;0.30;;;;;;;21.05;41.36;98738.59;4543814;28;20055;-55
2023/03/31 07:14:07;;;;;;;0.60;0.38;;;;;;;21.06;40.94;98733.69;4543344;28;20036;-54
2023/03/31 07:16:17;;;;;;;0.20;0.20;;;;;;;21.03;40.83;98726.72;4544552;28;20609;-54
2023/03/31 07:18:31;;;;;;;0.20;0.20;;;;;;;21.04;40.89;98724.69;4550642;28;20107;-55
2023/03/31 07:20:42;;;;;;;0.38;0.20;;;;;;;21.02;40.59;98725.09;4541597;28;20627;-55
2023/03/31 07:22:53;;;;;;;0.20;0.20;;;;;;;21.04;40.69;98730.41;4543388;28;20028;-54
2023/03/31 07:25:03;;;;;;;0.30;0.22;;;;;;;21.01;40.41;98719.78;4543713;28;20504;-56
2023/03/31 07:27:14;;;;;;;0.25;0.20;;;;;;;20.97;40.28;98714.03;4542176;28;20044;-55
2023/03/31 07:29:24;;;;;;;0.30;0.20;;;;;;;20.96;40.38;98709.56;4543333;28;20071;-56
2023/03/31 07:31:35;;;;;;;0.30;0.20;;;;;;;21.02;40.16;98718.53;4544304;28;20378;-56
2023/03/31 07:33:45;;;;;;;0.45;0.32;;;;;;;21.01;40.11;98714.84;4541997;28;20048;-56
2023/03/31 07:35:56;;;;;;;0.77;0.40;;;;;;;20.99;40.56;98711.59;4551297;28;20197;-55
2023/03/31 07:38:08;;;;;;;0.38;0.32;;;;;;;20.95;40.76;98699.25;4543410;28;20047;-56
2023/03/31 07:40:26;;;;;;;0.40;0.40;;;;;;;20.99;40.50;98705.84;4544890;28;20607;-56
2023/03/31 07:42:37;;;;;;;0.77;0.30;;;;;;;20.93;40.56;98690.25;4544463;28;20145;-57
2023/03/31 07:44:48;;;;;;;0.47;0.30;;;;;;;20.99;40.08;98694.38;4542831;28;20155;-56
2023/03/31 07:47:03;;;;;;;0.55;0.30;;;;;;;20.99;40.52;98702.97;4542600;28;20032;-56
2023/03/31 07:49:14;;;;;;;0.20;0.20;;;;;;;20.99;40.26;98694.38;4542559;28;20033;-56
2023/03/31 07:51:25;;;;;;;0.20;0.20;;;;;;;21.00;40.03;98698.03;4559631;27;20032;-57
2023/03/31 07:53:36;;;;;;;0.20;0.20;;;;;;;21.00;39.63;98707.47;4542927;28;20074;-56
2023/03/31 07:55:47;;;;;;;0.40;0.40;;;;;;;21.01;39.31;98696.84;4543966;28;20547;-56
2023/03/31 07:57:58;;;;;;;0.30;0.30;;;;;;;20.97;39.89;98693.16;4542905;28;20040;-57
2023/03/31 08:00:11;;;;;;;0.28;0.28;;;;;;;20.99;39.85;98694.38;4557761;27;20043;-56
2023/03/31 08:02:24;;;;;;;0.28;0.28;;;;;;;20.97;39.63;98693.97;4542839;28;20564;-56
2023/03/31 08:04:35;;;;;;;0.20;0.20;;;;;;;21.00;39.84;98698.03;4543022;28;20036;-56
2023/03/31 08:06:46;;;;;;;0.30;0.30;;;;;;;21.01;39.46;98703.38;4543398;28;20072;-56
2023/03/31 08:08:57;;;;;;;0.28;0.20;;;;;;;21.01;39.81;98702.56;4542200;28;20040;-56
2023/03/31 08:11:08;;;;;;;0.30;0.17;;;;;;;21.00;40.25;98701.75;4542935;28;20036;-56
2023/03/31 08:13:19;;;;;;;0.20;0.20;;;;;;;21.01;39.93;98703.38;4558737;27;20024;-56
2023/03/31 08:15:30;;;;;;;0.25;0.20;;;;;;;20.97;40.10;98696.84;4543318;28;20086;-56
2023/03/31 08:17:41;;;;;;;0.20;0.20;;;;;;;20.98;40.02;98686.19;4544958;28;20041;-56
2023/03/31 08:19:52;;;;;;;0.60;0.30;;;;;;;20.99;40.41;98687.81;4542721;28;20072;-56
2023/03/31 08:22:02;;;;;;;0.20;0.20;;;;;;;20.99;40.25;98688.66;4541452;28;20033;-55
2023/03/31 08:24:13;;;;;;;0.73;0.30;;;;;;;20.98;40.27;98684.13;4542677;28;20485;-56
2023/03/31 08:26:24;;;;;;;0.10;0.10;;;;;;;20.98;40.24;98687.00;4556616;28;20311;-55
2023/03/31 08:28:34;;;;;;;0.13;0.13;;;;;;;20.93;40.20;98675.91;4542411;28;20878;-56
2023/03/31 08:30:46;;;;;;;0.13;0.13;;;;;;;20.98;40.59;98692.72;4545039;28;20094;-56
2023/03/31 08:32:56;;;;;;;0.20;0.20;;;;;;;20.93;39.96;98678.78;4542200;28;20604;-56
2023/03/31 08:35:07;;;;;;;0.55;0.30;;;;;;;20.95;40.35;98679.19;4541829;28;20175;-56
2023/03/31 08:37:17;;;;;;;0.52;0.30;;;;;;;20.99;40.56;98684.94;4543160;28;20132;-57
2023/03/31 08:39:28;;;;;;;0.32;0.30;;;;;;;20.96;40.41;98678.00;4543389;28;20041;-57
2023/03/31 08:41:50;;;;;;;0.40;0.30;;;;;;;20.93;40.48;98664.44;4543190;28;20497;-56
2023/03/31 08:44:05;;;;;;;0.45;0.20;;;;;;;20.98;41.00;98674.72;4542798;28;20602;-56
2023/03/31 08:46:18;;;;;;;0.65;0.55;;;;;;;20.96;40.77;98674.28;4542538;28;20040;-57
2023/03/31 08:48:37;;;;;;;0.52;0.35;;;;;;;20.96;41.01;98672.28;4541860;28;20126;-56
2023/03/31 08:50:53;;;;;;;0.30;0.20;;;;;;;20.98;40.80;98680.47;4543713;28;20771;-56
2023/03/31 08:53:19;;;;;;;0.40;0.40;;;;;;;20.97;40.88;98679.63;4558107;27;20028;-54
2023/03/31 08:55:50;;;;;;;0.30;0.30;;;;;;;20.97;40.76;98671.03;4543375;28;20128;-55
2023/03/31 08:58:22;;;;;;;0.20;0.20;;;;;;;20.98;40.73;98666.91;4558189;28;20623;-55
2023/03/31 09:00:45;;;;;;;0.25;0.25;;;;;;;20.98;40.53;98664.03;4545885;28;20732;-56
2023/03/31 09:03:05;;;;;;;0.30;0.20;;;;;;;20.97;40.86;98668.16;4557908;27;20067;-56
2023/03/31 09:05:30;;;;;;;0.40;0.28;;;;;;;20.98;40.79;98664.03;4542896;28;20065;-56
2023/03/31 09:08:10;;;;;;;0.30;0.30;;;;;;;20.97;41.02;98650.94;4558628;28;20576;-55
2023/03/31 09:10:35;;;;;;;0.47;0.43;;;;;;;20.98;41.35;98646.03;4544534;28;20037;-55
2023/03/31 09:12:55;;;;;;;0.50;0.40;;;;;;;20.98;41.08;98646.03;4540010;28;21200;-56
2023/03/31 09:15:09;;;;;;;0.60;0.50;;;;;;;20.97;40.96;98653.81;4542890;28;20043;-54
2023/03/31 09:17:43;;;;;;;0.20;0.20;;;;;;;20.97;41.25;98659.56;4542458;28;20040;-55
2023/03/31 09:19:57;;;;;;;0.75;0.30;;;;;;;20.97;41.21;98644.38;4542798;28;20048;-56
2023/03/31 09:22:18;;;;;;;0.60;0.30;;;;;;;20.97;40.88;98642.34;4540628;28;20372;-56
2023/03/31 09:24:46;;;;;;;0.43;0.40;;;;;;;20.97;41.14;98633.75;4526005;28;20072;-56
2023/03/31 09:27:02;;;;;;;0.70;0.50;;;;;;;20.95;41.29;98627.56;4546328;28;20037;-56
2023/03/31 09:29:18;;;;;;;0.30;0.30;;;;;;;20.97;41.45;98622.28;4560485;28;20130;-56
2023/03/31 09:31:28;;;;;;;0.20;0.20;;;;;;;20.96;41.30;98620.66;4552978;28;20037;-56
2023/03/31 09:33:46;;;;;;;1.35;0.70;;;;;;;20.90;41.39;98610.00;4561040;28;20894;-56
2023/03/31 09:35:58;;;;;;;0.70;0.57;;;;;;;20.92;41.30;98618.97;4551365;28;20036;-56
2023/03/31 09:38:11;;;;;;;0.32;0.28;;;;;;;20.92;41.42;98619.81;4544645;28;20393;-56
2023/03/31 09:40:24;;;;;;;0.20;0.20;;;;;;;20.96;41.15;98626.38;4545078;28;20052;-56
2023/03/31 09:42:36;;;;;;;0.40;0.40;;;;;;;20.99;41.29;98621.84;4546069;28;20029;-56
2023/03/31 09:44:51;;;;;;;0.52;0.30;;;;;;;20.93;41.09;98612.03;4553106;28;20032;-57
2023/03/31 09:47:02;;;;;;;1.10;0.40;;;;;;;20.99;41.11;98619.81;4546669;28;20284;-56
2023/03/31 09:49:20;;;;;;;0.70;0.47;;;;;;;20.98;41.43;98618.16;4547071;27;20068;-55
2023/03/31 09:51:36;;;;;;;0.30;0.20;;;;;;;20.98;41.31;98615.28;4544860;28;20694;-55
2023/03/31 09:53:53;;;;;;;0.40;0.30;;;;;;;20.97;41.40;98607.94;4545583;28;20028;-56
2023/03/31 09:56:04;;;;;;;;;;;;;;;20.98;42.07;98600.94;4542974;28;20577;-56
2023/03/31 09:58:15;;;;;;;0.25;0.20;;;;;;;20.98;41.88;98606.69;4547743;28;20472;-56
2023/03/31 10:00:27;;;;;;;0.25;0.20;;;;;;;20.99;42.27;98596.03;4545305;28;20051;-56
2023/03/31 10:02:39;;;;;;;0.40;0.30;;;;;;;20.84;42.51;98572.31;4544954;28;20033;-56
2023/03/31 10:04:50;;;;;;;0.57;0.32;;;;;;;20.94;42.53;98587.84;4545033;28;20033;-56
2023/03/31 10:07:03;;;;;;;0.73;0.22;;;;;;;21.00;42.76;98586.19;4543903;28;20296;-57
2023/03/31 10:09:15;;;;;;;0.40;0.40;;;;;;;20.98;42.97;98589.47;4545378;28;20024;-56
2023/03/31 10:11:26;;;;;;;0.32;0.30;;;;;;;21.00;42.58;98591.91;4543011;28;21393;-56
2023/03/31 10:13:45;;;;;;;0.50;0.50;;;;;;;21.00;42.36;98589.88;4547015;28;20029;-56
2023/03/31 10:16:03;;;;;;;0.80;0.40;;;;;;;21.01;42.64;98582.09;4544517;28;20112;-56
2023/03/31 10:18:16;;;;;;;0.80;0.50;;;;;;;21.01;42.18;98588.63;4545237;28;20530;-56
2023/03/31 10:20:36;;;;;;;0.57;0.40;;;;;;;21.00;42.43;98580.44;4544751;28;20040;-55
2023/03/31 10:22:47;;;;;;;1.52;0.40;;;;;;;20.97;42.77;98576.38;4545249;28;20595;-56
2023/03/31 10:25:14;;;;;;;0.45;0.20;;;;;;;21.01;43.44;98580.03;4543792;28;20052;-56
2023/03/31 10:27:30;;;;;;;0.40;0.40;;;;;;;21.00;43.11;98592.75;4542671;28;20072;-56
2023/03/31 10:29:40;;;;;;;0.50;0.30;;;;;;;21.00;42.97;98592.75;4544785;28;20587;-56
2023/03/31 10:31:51;;;;;;;0.30;0.30;;;;;;;20.96;42.34;98580.50;4546288;28;20036;-56
2023/03/31 10:34:15;;;;;;;0.20;0.20;;;;;;;20.99;42.41;98573.09;4544575;28;20040;-56